Aeroporto :
LOGIN :

Iscrizione | Disclaimer

   EN    FR    IT 

 










Sommario :    VFR   VFR Marginale   IFR   IFR Intensivo   IFR Molto Intensivo
Visibilità : 
Base nubi : 
>= 8 km
>= 3000ft
5 / 8 km
1000 / 3000 ft
1500m / 5 km
500 / 1000 ft
800 / 1500m
200 / 500 ft
< 800m
< 200 ft
Simboli :   Temporali  Nebbia  Neve Forte  Precipitazioni Forti  Vento > 20 kt
SIGMETs :   Varie  Temporali  Ghiacco  Turbolenza  Onda orograficha  Ceneri Vulcaniche






- Altitudine del aeroporto : 17 ft
- Codice IATA : MHQ


EFMA - Mariehamn

ULTIMO METAR :
  • 241120Z AUTO 30013G24KT 260V340 CAVOK 04/M05 Q1001

METARs OBSOLETI :
  • 241050Z AUTO 29013G23KT 250V330 CAVOK 03/M05 Q1001
  • 241020Z 29012KT 250V330 CAVOK 03/M05 Q1001
  • 240950Z 29013G23KT 250V320 CAVOK 03/M05 Q1000
  • 240920Z 29011KT 240V320 CAVOK 03/M05 Q1000
  • 240850Z 29012G22KT 260V320 CAVOK 02/M05 Q1000

TAF TAF EFMA
Valido dal 24 a 09 ore il 24 a 18 ore UTC


240832Z 2409/2418 29011KT CAVOK
TEMPO 2409/2414 30016G28KT



MetMap, La meteo Aeronautica in un colpo d'occhio ! - Copyright ORBIFLY Dicembre 2007 - Disclaimer

ORBIFLY MET'MAP TEAM :

Programmazione e sviluppo : Alexandra Zaïnal
Concezione : Baudouin d'Aumeries
Aiuto per la programmazione : Marc-Olivier Méhu
Supporto tecnico e logistico : Manuel Goepfert
Aiuto per la traduzione : Arnaldo La Scala

Contatto : metmap@orbifly.com




FONTI E CREDITI :

   NOAA